createdAt,value
2019-06-15T00:00:29.772Z,0
2019-06-15T00:01:10.325Z,0
2019-06-15T00:01:50.889Z,0
2019-06-15T00:02:31.460Z,0
2019-06-15T00:03:12.024Z,0
2019-06-15T00:03:52.589Z,0
2019-06-15T00:04:33.174Z,0
2019-06-15T00:10:38.405Z,0
2019-06-15T00:11:19.006Z,0
2019-06-15T00:11:59.549Z,0
2019-06-15T00:12:40.135Z,0
2019-06-15T00:13:20.710Z,0
2019-06-15T00:14:01.311Z,0
2019-06-15T00:14:41.900Z,0
2019-06-15T00:15:22.464Z,0
2019-06-15T00:16:03.056Z,0
2019-06-15T00:18:07.448Z,0
2019-06-15T00:18:48.014Z,0
2019-06-15T00:19:28.577Z,0
2019-06-15T00:20:09.434Z,0
2019-06-15T00:20:50.011Z,0
2019-06-15T00:24:12.835Z,0
2019-06-15T00:24:53.453Z,0
2019-06-15T00:25:34.009Z,0
2019-06-15T00:26:14.595Z,0
2019-06-15T00:26:55.168Z,0
2019-06-15T00:27:35.753Z,0
2019-06-15T00:28:16.320Z,0
2019-06-15T00:28:56.898Z,0
2019-06-15T00:29:38.320Z,0
2019-06-15T00:35:02.845Z,0
2019-06-15T00:35:43.433Z,0
2019-06-15T00:36:23.980Z,0
2019-06-15T00:37:04.931Z,0
2019-06-15T00:37:45.112Z,0
2019-06-15T00:38:25.670Z,0
2019-06-15T00:39:06.235Z,0
2019-06-15T00:39:46.798Z,0
2019-06-15T00:40:27.367Z,0
2019-06-15T00:46:32.516Z,0
2019-06-15T00:47:13.100Z,0
2019-06-15T00:47:53.670Z,0
2019-06-15T00:48:34.231Z,0
2019-06-15T00:49:14.845Z,0
2019-06-15T00:49:55.404Z,0
2019-06-15T00:50:35.985Z,0
2019-06-15T00:51:16.541Z,0
2019-06-15T00:51:57.117Z,0
2019-06-15T00:52:37.690Z,0
2019-06-15T00:58:42.842Z,0
2019-06-15T00:59:23.409Z,0
2019-06-15T01:00:03.990Z,0
2019-06-15T01:00:44.551Z,0
2019-06-15T01:01:25.144Z,0
2019-06-15T01:02:05.720Z,0
2019-06-15T01:02:46.266Z,0
2019-06-15T01:03:26.862Z,0
2019-06-15T01:04:07.417Z,0
2019-06-15T01:10:12.578Z,0
2019-06-15T01:10:53.198Z,0
2019-06-15T01:11:33.782Z,0
2019-06-15T01:12:14.359Z,0
2019-06-15T01:12:54.931Z,0
2019-06-15T01:13:35.512Z,0
2019-06-15T01:14:16.072Z,0
2019-06-15T01:14:56.629Z,0
2019-06-15T01:15:37.213Z,0
2019-06-15T01:16:17.782Z,0
2019-06-15T01:21:42.596Z,0
2019-06-15T01:22:23.173Z,0
2019-06-15T01:23:03.743Z,0
2019-06-15T01:23:44.300Z,0
2019-06-15T01:24:24.885Z,0
2019-06-15T01:25:06.083Z,0
2019-06-15T01:25:46.030Z,0
2019-06-15T01:26:26.594Z,0
2019-06-15T01:27:07.167Z,0
2019-06-15T01:27:47.722Z,0
2019-06-15T01:33:52.821Z,0
2019-06-15T01:34:33.395Z,0
2019-06-15T01:35:13.960Z,0
2019-06-15T01:35:54.523Z,0
2019-06-15T01:36:35.101Z,0
2019-06-15T01:37:15.690Z,0
2019-06-15T01:37:56.259Z,0
2019-06-15T01:38:36.832Z,0
2019-06-15T01:39:17.408Z,0
2019-06-15T01:45:22.575Z,0
2019-06-15T01:46:03.143Z,0
2019-06-15T01:46:43.703Z,0
2019-06-15T01:47:24.294Z,0
2019-06-15T01:48:04.876Z,0
2019-06-15T01:48:45.451Z,0
2019-06-15T01:49:26.030Z,0
2019-06-15T01:50:06.600Z,0
2019-06-15T01:50:47.183Z,0
2019-06-15T01:51:27.734Z,0
2019-06-15T01:57:32.801Z,0
2019-06-15T01:58:13.364Z,0
2019-06-15T01:58:53.940Z,0
2019-06-15T01:59:34.516Z,0
2019-06-15T02:00:15.079Z,0
2019-06-15T02:00:55.651Z,0
2019-06-15T02:01:36.261Z,0
2019-06-15T02:02:16.838Z,0
2019-06-15T02:02:57.410Z,0
2019-06-15T02:09:02.557Z,0
2019-06-15T02:09:43.108Z,0
2019-06-15T02:10:23.710Z,0
2019-06-15T02:11:04.286Z,0
2019-06-15T02:11:44.868Z,0
2019-06-15T02:12:25.426Z,0
2019-06-15T02:13:05.995Z,0
2019-06-15T02:13:46.552Z,0
2019-06-15T02:14:27.124Z,0
2019-06-15T02:15:07.699Z,0
2019-06-15T02:21:12.929Z,0
2019-06-15T02:21:53.497Z,0
2019-06-15T02:22:34.072Z,0
2019-06-15T02:23:14.654Z,0
2019-06-15T02:23:55.209Z,0
2019-06-15T02:24:35.753Z,0
2019-06-15T02:25:16.314Z,0
2019-06-15T02:25:56.868Z,0
2019-06-15T02:26:37.463Z,0
2019-06-15T02:32:42.600Z,4
2019-06-15T02:33:23.163Z,4
2019-06-15T02:34:03.732Z,4
2019-06-15T02:34:44.292Z,4
2019-06-15T02:35:24.860Z,4
2019-06-15T02:36:05.419Z,0
2019-06-15T02:36:46.010Z,0
2019-06-15T02:37:26.590Z,0
2019-06-15T02:38:07.174Z,0
2019-06-15T02:38:47.739Z,0
2019-06-15T02:44:52.855Z,4
2019-06-15T02:45:33.423Z,4
2019-06-15T02:46:13.982Z,4
2019-06-15T02:46:54.552Z,4
2019-06-15T02:47:35.116Z,4
2019-06-15T02:48:15.711Z,4
2019-06-15T02:48:56.269Z,4
2019-06-15T02:49:36.846Z,4
2019-06-15T02:50:17.425Z,4
2019-06-15T02:56:22.550Z,8
2019-06-15T02:57:03.106Z,8
2019-06-15T02:57:43.697Z,12
2019-06-15T02:58:24.240Z,8
2019-06-15T02:59:04.806Z,12
2019-06-15T02:59:45.778Z,12
2019-06-15T03:00:26.348Z,12
2019-06-15T03:01:06.919Z,12
2019-06-15T03:01:47.490Z,12
2019-06-15T03:07:52.594Z,28
2019-06-15T03:08:33.164Z,32
2019-06-15T03:09:13.736Z,36
2019-06-15T03:09:54.329Z,40
2019-06-15T03:10:34.880Z,40
2019-06-15T03:11:15.439Z,44
2019-06-15T03:11:56.011Z,52
2019-06-15T03:12:36.583Z,56
2019-06-15T03:13:17.143Z,60
2019-06-15T03:13:57.736Z,60
2019-06-15T03:20:02.960Z,120
2019-06-15T03:20:43.751Z,128
2019-06-15T03:21:24.304Z,132
2019-06-15T03:22:06.564Z,136
2019-06-15T03:22:45.442Z,144
2019-06-15T03:23:26.026Z,144
2019-06-15T03:24:06.622Z,152
2019-06-15T03:24:47.197Z,152
2019-06-15T03:25:27.742Z,152
2019-06-15T03:31:32.875Z,132
2019-06-15T03:32:13.453Z,132
2019-06-15T03:32:54.012Z,132
2019-06-15T03:33:34.593Z,136
2019-06-15T03:34:15.178Z,140
2019-06-15T03:34:55.778Z,144
2019-06-15T03:35:36.351Z,144
2019-06-15T03:36:16.936Z,148
2019-06-15T03:36:57.505Z,152
2019-06-15T03:43:02.837Z,132
2019-06-15T03:46:16.760Z,124
2019-06-15T03:46:57.336Z,120
2019-06-15T03:47:37.920Z,120
2019-06-15T03:48:18.498Z,116
2019-06-15T03:48:59.051Z,116
2019-06-15T03:49:39.648Z,116
2019-06-15T03:50:20.171Z,116
2019-06-15T03:51:00.727Z,116
2019-06-15T03:51:41.329Z,116
2019-06-15T03:57:46.534Z,136
2019-06-15T03:58:27.091Z,140
2019-06-15T03:59:07.662Z,144
2019-06-15T03:59:48.228Z,148
2019-06-15T04:00:28.793Z,156
2019-06-15T04:01:09.387Z,164
2019-06-15T04:01:49.972Z,180
2019-06-15T04:02:30.525Z,188
2019-06-15T04:03:11.113Z,200
2019-06-15T04:03:51.664Z,216
2019-06-15T04:08:52.190Z,352
2019-06-15T04:09:32.759Z,364
2019-06-15T04:10:13.313Z,384
2019-06-15T04:10:53.878Z,396
2019-06-15T04:11:34.436Z,412
2019-06-15T04:12:15.003Z,424
2019-06-15T04:12:55.566Z,436
2019-06-15T04:13:36.126Z,456
2019-06-15T04:14:16.713Z,472
2019-06-15T04:14:57.265Z,492
2019-06-15T04:20:21.898Z,616
2019-06-15T04:21:02.481Z,620
2019-06-15T04:21:43.033Z,628
2019-06-15T04:22:23.608Z,628
2019-06-15T04:23:04.175Z,636
2019-06-15T04:23:44.752Z,648
2019-06-15T04:24:25.326Z,656
2019-06-15T04:25:05.909Z,664
2019-06-15T04:25:46.524Z,672
2019-06-15T04:26:35.509Z,684
2019-06-15T04:32:32.175Z,832
2019-06-15T04:33:12.745Z,860
2019-06-15T04:33:53.325Z,880
2019-06-15T04:34:33.886Z,896
2019-06-15T04:35:14.434Z,908
2019-06-15T04:38:28.350Z,1096
2019-06-15T04:39:08.925Z,1152
2019-06-15T04:39:49.517Z,1216
2019-06-15T04:40:30.097Z,1292
2019-06-15T04:41:10.655Z,1364
2019-06-15T04:41:51.232Z,1424
2019-06-15T04:42:31.795Z,1492
2019-06-15T04:43:12.324Z,1560
2019-06-15T04:43:52.894Z,1620
2019-06-15T04:44:33.463Z,1684
2019-06-15T04:49:58.189Z,1836
2019-06-15T04:50:38.752Z,1808
2019-06-15T04:51:19.333Z,1712
2019-06-15T04:51:59.871Z,1596
2019-06-15T04:52:40.426Z,1460
2019-06-15T04:53:20.997Z,1416
2019-06-15T04:54:01.632Z,1444
2019-06-15T04:54:42.177Z,1520
2019-06-15T04:55:22.725Z,1620
2019-06-15T04:56:03.286Z,1716
2019-06-15T05:02:08.456Z,2300
2019-06-15T05:02:49.012Z,2380
2019-06-15T05:03:29.588Z,2532
2019-06-15T05:04:10.156Z,2736
2019-06-15T05:04:50.745Z,2956
2019-06-15T05:05:31.301Z,3152
2019-06-15T05:06:11.882Z,3428
2019-06-15T05:06:52.513Z,3836
2019-06-15T05:07:33.012Z,4340
2019-06-15T05:12:33.554Z,6544
2019-06-15T05:13:14.114Z,6832
2019-06-15T05:13:54.675Z,7324
2019-06-15T05:14:35.230Z,7468
2019-06-15T05:15:15.792Z,7496
2019-06-15T05:15:56.347Z,7784
2019-06-15T05:16:36.916Z,7980
2019-06-15T05:17:17.487Z,8136
2019-06-15T05:17:58.052Z,8372
2019-06-15T05:18:38.618Z,8588
2019-06-15T05:24:03.222Z,20864
2019-06-15T05:24:43.803Z,26624
2019-06-15T05:25:24.403Z,30080
2019-06-15T05:26:04.940Z,32352
2019-06-15T05:26:45.494Z,34144
2019-06-15T05:27:26.081Z,34976
2019-06-15T05:28:06.643Z,35232
2019-06-15T05:28:47.206Z,30880
2019-06-15T05:29:27.766Z,31552
2019-06-15T05:30:08.335Z,16512
2019-06-15T05:36:13.526Z,7020
2019-06-15T05:36:54.103Z,10516
2019-06-15T05:37:34.679Z,7488
2019-06-15T05:38:15.257Z,6760
2019-06-15T05:38:55.845Z,13048
2019-06-15T05:39:36.434Z,7820
2019-06-15T05:42:04.527Z,9688
2019-06-15T05:42:45.091Z,17504
2019-06-15T05:43:25.677Z,7092
2019-06-15T05:44:06.241Z,6836
2019-06-15T05:44:46.810Z,6828
2019-06-15T05:45:27.391Z,6972
2019-06-15T05:46:07.963Z,7652
2019-06-15T05:46:48.538Z,10228
2019-06-15T05:47:29.097Z,7492
2019-06-15T05:53:34.553Z,7592
2019-06-15T05:54:15.154Z,7564
2019-06-15T05:54:55.765Z,8004
2019-06-15T05:55:36.335Z,9068
2019-06-15T05:56:17.111Z,11436
2019-06-15T05:56:57.724Z,14172
2019-06-15T05:57:38.340Z,31808
2019-06-15T05:58:18.883Z,34624
2019-06-15T05:58:59.457Z,29984
2019-06-15T06:04:24.340Z,53248
2019-06-15T06:05:04.967Z,52896
2019-06-15T06:05:45.526Z,51104
2019-06-15T06:06:26.116Z,49376
2019-06-15T06:07:06.728Z,38336
2019-06-15T06:07:47.313Z,43040
2019-06-15T06:08:27.920Z,48576
2019-06-15T06:09:08.486Z,32096
2019-06-15T06:09:49.092Z,39456
2019-06-15T06:13:28.627Z,18784
2019-06-15T06:14:09.357Z,30944
2019-06-15T06:14:49.824Z,42592
2019-06-15T06:15:30.498Z,57312
2019-06-15T06:16:11.091Z,56128
2019-06-15T06:16:51.715Z,55200
2019-06-15T06:17:32.312Z,20128
2019-06-15T06:18:12.879Z,13184
2019-06-15T06:18:53.475Z,12176
2019-06-15T06:24:18.580Z,57760
2019-06-15T06:24:59.213Z,40064
2019-06-15T06:25:39.757Z,26720
2019-06-15T06:26:20.325Z,21760
2019-06-15T06:27:00.943Z,36704
2019-06-15T06:27:41.667Z,56256
2019-06-15T06:28:22.177Z,31296
2019-06-15T06:29:02.779Z,56448
2019-06-15T06:29:43.356Z,55712
2019-06-15T06:35:49.313Z,59488
2019-06-15T06:36:29.877Z,33248
2019-06-15T06:37:10.696Z,28416
2019-06-15T06:37:51.492Z,47872
2019-06-15T06:38:32.067Z,58336
2019-06-15T06:39:12.632Z,59104
2019-06-15T06:39:53.234Z,59648
2019-06-15T06:42:38.904Z,57440
2019-06-15T06:43:21.338Z,57024
2019-06-15T06:44:02.529Z,57440
2019-06-15T06:44:44.095Z,57696
2019-06-15T06:48:48.585Z,57120
2019-06-15T06:49:29.023Z,58688
2019-06-15T06:52:43.678Z,29632
2019-06-15T06:53:24.407Z,20960
2019-06-15T06:54:05.765Z,19264
2019-06-15T06:54:47.695Z,12240
2019-06-15T06:55:28.968Z,13616
2019-06-15T06:58:14.041Z,25632
2019-06-15T06:58:55.221Z,58880
2019-06-15T06:59:35.789Z,44160
2019-06-15T07:00:17.079Z,38432
2019-06-15T07:00:57.787Z,31936
2019-06-15T07:01:38.443Z,48928
2019-06-15T07:05:03.793Z,16512
2019-06-15T07:05:44.459Z,17408
2019-06-15T07:06:25.353Z,16576
2019-06-15T07:07:06.480Z,13260
2019-06-15T07:07:47.929Z,12004
2019-06-15T07:10:33.360Z,20448
2019-06-15T07:11:14.252Z,16704
2019-06-15T07:11:54.964Z,15104
2019-06-15T07:15:09.571Z,10704
2019-06-15T07:15:50.143Z,10052
2019-06-15T07:16:30.727Z,12756
2019-06-15T07:17:11.319Z,11016
2019-06-15T07:17:51.888Z,8872
2019-06-15T07:18:32.458Z,9392
2019-06-15T07:19:13.331Z,9124
2019-06-15T07:19:54.118Z,10268
2019-06-15T07:25:19.258Z,12124
2019-06-15T07:25:59.865Z,10760
2019-06-15T07:26:40.436Z,9440
2019-06-15T07:27:20.992Z,9340
2019-06-15T07:28:07.807Z,10060
2019-06-15T07:28:42.178Z,10228
2019-06-15T07:29:22.742Z,8932
2019-06-15T07:30:03.295Z,8964
2019-06-15T07:30:43.917Z,9276
2019-06-15T07:31:24.466Z,14232
2019-06-15T07:37:29.679Z,7076
2019-06-15T07:38:10.252Z,7256
2019-06-15T07:38:50.853Z,7752
2019-06-15T07:39:31.419Z,8680
2019-06-15T07:40:12.016Z,10676
2019-06-15T07:40:52.612Z,12988
2019-06-15T07:41:33.192Z,14612
2019-06-15T07:42:13.788Z,23616
2019-06-15T07:42:54.356Z,56480
2019-06-15T07:48:59.595Z,66688
2019-06-15T07:49:40.217Z,51840
2019-06-15T07:50:21.263Z,65536
2019-06-15T07:51:01.935Z,63360
2019-06-15T07:51:44.719Z,62816
2019-06-15T07:55:09.913Z,60800
2019-06-15T07:55:51.007Z,58816
2019-06-15T07:56:32.387Z,56672
2019-06-15T07:57:13.192Z,54496
2019-06-15T07:57:54.419Z,52832
2019-06-15T08:01:19.264Z,24224
2019-06-15T08:02:00.055Z,21408
2019-06-15T08:02:40.686Z,21120
2019-06-15T08:03:21.281Z,20736
2019-06-15T08:04:02.174Z,20352
2019-06-15T08:04:43.396Z,20192
2019-06-15T08:05:24.528Z,19936
2019-06-15T08:08:09.790Z,19520
2019-06-15T08:11:23.847Z,18656
2019-06-15T08:12:04.762Z,18208
2019-06-15T08:12:45.961Z,16416
2019-06-15T08:13:26.744Z,14100
2019-06-15T08:14:07.316Z,12960
2019-06-15T08:14:48.417Z,12832
2019-06-15T08:21:52.078Z,17408
2019-06-15T08:22:32.674Z,16672
2019-06-15T08:23:13.296Z,16448
2019-06-15T08:23:54.139Z,14536
2019-06-15T08:24:34.722Z,13520
2019-06-15T08:25:15.296Z,14588
2019-06-15T08:25:55.883Z,15332
2019-06-15T08:26:36.447Z,15560
2019-06-15T08:27:17.040Z,14392
2019-06-15T08:32:41.931Z,12360
2019-06-15T08:33:22.402Z,12496
2019-06-15T08:34:02.987Z,12972
2019-06-15T08:34:43.565Z,12712
2019-06-15T08:35:24.140Z,11032
2019-06-15T08:36:04.720Z,11468
2019-06-15T08:36:45.514Z,12260
2019-06-15T08:37:26.104Z,12428
2019-06-15T08:38:06.660Z,12456
2019-06-15T08:44:11.837Z,11416
2019-06-15T08:44:52.402Z,11308
2019-06-15T08:45:32.987Z,11352
2019-06-15T08:46:13.546Z,11396
2019-06-15T08:46:54.226Z,11148
2019-06-15T08:47:34.793Z,10992
2019-06-15T08:48:15.361Z,11012
2019-06-15T08:48:55.945Z,10708
2019-06-15T08:49:36.556Z,10744
2019-06-15T08:50:17.125Z,10792
2019-06-15T08:55:41.735Z,11760
2019-06-15T08:56:22.317Z,11060
2019-06-15T08:57:02.899Z,10116
2019-06-15T08:57:45.034Z,9708
2019-06-15T08:58:27.308Z,10128
2019-06-15T09:00:32.324Z,11024
2019-06-15T09:01:13.617Z,10840
2019-06-15T09:01:54.153Z,10384
2019-06-15T09:02:34.730Z,10208
2019-06-15T09:03:15.279Z,10600
2019-06-15T09:03:56.019Z,10792
2019-06-15T09:04:36.596Z,10812
2019-06-15T09:05:17.173Z,10540
2019-06-15T09:10:41.769Z,9360
2019-06-15T09:11:22.414Z,9384
2019-06-15T09:12:02.994Z,9500
2019-06-15T09:12:43.565Z,9604
2019-06-15T09:13:24.155Z,9724
2019-06-15T09:14:04.743Z,9776
2019-06-15T09:14:45.309Z,9844
2019-06-15T09:15:25.997Z,9860
2019-06-15T09:16:06.618Z,9812
2019-06-15T09:22:11.955Z,7636
2019-06-15T09:22:52.511Z,7044
2019-06-15T09:23:33.092Z,6296
2019-06-15T09:24:13.691Z,5756
2019-06-15T09:24:54.269Z,5576
2019-06-15T09:25:36.743Z,5852
2019-06-15T09:26:15.425Z,5820
2019-06-15T09:26:56.016Z,6340
2019-06-15T09:27:36.607Z,6564
2019-06-15T09:28:17.197Z,6636
2019-06-15T09:33:41.867Z,8104
2019-06-15T09:34:22.448Z,7976
2019-06-15T09:35:03.030Z,7856
2019-06-15T09:35:43.614Z,7756
2019-06-15T09:36:24.189Z,7668
2019-06-15T09:37:04.796Z,7604
2019-06-15T09:37:45.363Z,7500
2019-06-15T09:38:25.964Z,7412
2019-06-15T09:39:06.522Z,7592
2019-06-15T09:39:47.090Z,7376
2019-06-15T09:44:31.914Z,7264
2019-06-15T09:45:12.512Z,7252
2019-06-15T09:45:53.119Z,7248
2019-06-15T09:46:33.692Z,7184
2019-06-15T09:47:14.313Z,7132
2019-06-15T09:47:54.916Z,6992
2019-06-15T09:48:35.497Z,6876
2019-06-15T09:49:16.075Z,6164
2019-06-15T09:49:56.643Z,5200
2019-06-15T09:55:21.716Z,7068
2019-06-15T09:56:02.598Z,7592
2019-06-15T09:56:43.859Z,8812
2019-06-15T09:57:25.048Z,8528
2019-06-15T09:58:06.327Z,8760
2019-06-15T09:58:47.369Z,9200
2019-06-15T10:02:51.839Z,9064
2019-06-15T10:03:32.395Z,9020
2019-06-15T10:04:12.964Z,9236
2019-06-15T10:04:53.547Z,8332
2019-06-15T10:05:34.128Z,7772
2019-06-15T10:06:14.697Z,7656
2019-06-15T10:06:55.296Z,8204
2019-06-15T10:07:35.908Z,8284
2019-06-15T10:08:16.506Z,8196
2019-06-15T10:08:57.069Z,8324
2019-06-15T10:15:02.280Z,7072
2019-06-15T10:15:42.909Z,7132
2019-06-15T10:16:23.480Z,7016
2019-06-15T10:17:04.112Z,6896
2019-06-15T10:17:44.734Z,6792
2019-06-15T10:18:25.314Z,6552
2019-06-15T10:19:06.002Z,6832
2019-06-15T10:19:46.511Z,6872
2019-06-15T10:20:27.389Z,6840
2019-06-15T10:26:49.243Z,5868
2019-06-15T10:27:29.798Z,6092
2019-06-15T10:28:10.376Z,5480
2019-06-15T10:28:50.987Z,5420
2019-06-15T10:29:41.448Z,5092
2019-06-15T10:30:12.158Z,5372
2019-06-15T10:30:52.725Z,5200
2019-06-15T10:31:33.361Z,6236
2019-06-15T10:32:13.914Z,5256
2019-06-15T10:38:19.094Z,5792
2019-06-15T10:38:59.665Z,5944
2019-06-15T10:39:40.236Z,6228
2019-06-15T10:40:20.794Z,6220
2019-06-15T10:41:01.403Z,6264
2019-06-15T10:41:42.461Z,6396
2019-06-15T10:42:22.879Z,6220
2019-06-15T10:43:03.080Z,6264
2019-06-15T10:43:43.653Z,6184
2019-06-15T10:44:24.259Z,6104
2019-06-15T10:50:29.418Z,6620
2019-06-15T10:51:09.975Z,6468
2019-06-15T10:51:50.611Z,6364
2019-06-15T10:52:31.181Z,6252
2019-06-15T10:53:11.750Z,6176
2019-06-15T10:53:52.348Z,6120
2019-06-15T10:54:32.908Z,6076
2019-06-15T10:55:13.473Z,6040
2019-06-15T10:55:54.054Z,6032
2019-06-15T11:01:59.380Z,5660
2019-06-15T11:02:39.971Z,5632
2019-06-15T11:03:20.566Z,5636
2019-06-15T11:04:01.165Z,5636
2019-06-15T11:04:41.745Z,5672
2019-06-15T11:05:22.350Z,5720
2019-06-15T11:06:02.975Z,5772
2019-06-15T11:06:43.541Z,5792
2019-06-15T11:07:24.116Z,5848
2019-06-15T11:13:29.401Z,6244
2019-06-15T11:14:09.988Z,6236
2019-06-15T11:14:50.567Z,6220
2019-06-15T11:15:31.148Z,6152
2019-06-15T11:16:11.736Z,6156
2019-06-15T11:16:52.294Z,6024
2019-06-15T11:17:32.882Z,6048
2019-06-15T11:18:13.450Z,6000
2019-06-15T11:18:54.019Z,5980
2019-06-15T11:24:59.227Z,5764
2019-06-15T11:25:39.865Z,5768
2019-06-15T11:26:20.444Z,5740
2019-06-15T11:27:01.049Z,5780
2019-06-15T11:27:41.631Z,5808
2019-06-15T11:28:22.252Z,5816
2019-06-15T11:29:02.828Z,5796
2019-06-15T11:29:43.410Z,5728
2019-06-15T11:30:23.974Z,5708
2019-06-15T11:36:29.172Z,6560
2019-06-15T11:37:11.671Z,6636
2019-06-15T11:37:50.347Z,6804
2019-06-15T11:38:30.949Z,7192
2019-06-15T11:39:11.537Z,6896
2019-06-15T11:39:52.108Z,6636
2019-06-15T11:42:21.201Z,6400
2019-06-15T11:43:01.838Z,6424
2019-06-15T11:43:42.407Z,6720
2019-06-15T11:44:22.973Z,6644
2019-06-15T11:45:03.583Z,6676
2019-06-15T11:45:44.173Z,7000
2019-06-15T11:46:24.750Z,6852
2019-06-15T11:47:05.398Z,6920
2019-06-15T11:47:46.164Z,6960
2019-06-15T11:53:11.398Z,7180
2019-06-15T11:55:38.537Z,7100
2019-06-15T11:56:06.845Z,6276
2019-06-15T11:56:47.916Z,6056
2019-06-15T11:57:28.636Z,5748
2019-06-15T11:58:11.068Z,5368
2019-06-15T11:59:34.469Z,4720
2019-06-15T12:00:30.223Z,4452
2019-06-15T12:00:58.458Z,4192
2019-06-15T12:01:42.448Z,4076
2019-06-15T12:02:24.412Z,4300
2019-06-15T12:03:06.188Z,3828
2019-06-15T12:03:48.013Z,4900
2019-06-15T12:04:29.860Z,5288
2019-06-15T12:06:35.049Z,5104
2019-06-15T12:07:16.536Z,4920
2019-06-15T12:07:59.206Z,4764
2019-06-15T12:10:05.826Z,4460
2019-06-15T12:10:47.609Z,4424
2019-06-15T12:11:30.080Z,4368
2019-06-15T12:13:36.145Z,4268
2019-06-15T12:14:18.465Z,4256
2019-06-15T12:14:59.711Z,4296
2019-06-15T12:19:46.753Z,4560
2019-06-15T12:20:27.623Z,4416
2019-06-15T12:21:08.525Z,4608
2019-06-15T12:21:49.120Z,4816
2019-06-15T12:26:34.150Z,6052
2019-06-15T12:27:14.707Z,6088
2019-06-15T12:27:55.292Z,5740
2019-06-15T12:28:35.872Z,4844
2019-06-15T12:29:16.462Z,5580
2019-06-15T12:29:57.011Z,5476
2019-06-15T12:30:46.487Z,5316
2019-06-15T12:31:18.185Z,5268
2019-06-15T12:31:58.812Z,5244
2019-06-15T12:32:39.360Z,5220
2019-06-15T12:38:04.165Z,5280
2019-06-15T12:38:44.780Z,5392
2019-06-15T12:39:25.338Z,5496
2019-06-15T12:40:05.899Z,5620
2019-06-15T12:40:46.498Z,5696
2019-06-15T12:41:27.072Z,5724
2019-06-15T12:42:07.806Z,5776
2019-06-15T12:42:48.411Z,5828
2019-06-15T12:43:29.012Z,5852
2019-06-15T12:44:09.647Z,5776
2019-06-15T12:49:34.314Z,6376
2019-06-15T12:50:14.912Z,6460
2019-06-15T12:50:55.520Z,6216
2019-06-15T12:51:36.154Z,6400
2019-06-15T12:52:16.753Z,6148
2019-06-15T12:52:57.352Z,6716
2019-06-15T12:53:37.926Z,6888
2019-06-15T12:54:18.512Z,6804
2019-06-15T12:54:59.135Z,6572
2019-06-15T13:01:04.353Z,3724
2019-06-15T13:01:44.931Z,3968
2019-06-15T13:02:25.548Z,3920
2019-06-15T13:03:06.097Z,3500
2019-06-15T13:03:46.669Z,3340
2019-06-15T13:04:27.289Z,3340
2019-06-15T13:05:08.658Z,3332
2019-06-15T13:05:48.516Z,4948
2019-06-15T13:06:29.088Z,3452
2019-06-15T13:12:34.306Z,4116
2019-06-15T13:13:14.873Z,4232
2019-06-15T13:13:55.431Z,4292
2019-06-15T13:14:36.014Z,4840
2019-06-15T13:15:16.592Z,4536
2019-06-15T13:15:57.185Z,4584
2019-06-15T13:16:39.573Z,4696
2019-06-15T13:17:18.375Z,4648
2019-06-15T13:17:59.178Z,4624
2019-06-15T13:23:24.644Z,4828
2019-06-15T13:24:05.318Z,5588
2019-06-15T13:24:45.902Z,5072
2019-06-15T13:28:00.113Z,5288
2019-06-15T13:28:40.785Z,5052
2019-06-15T13:29:21.372Z,5872
2019-06-15T13:30:01.992Z,5596
2019-06-15T13:30:42.650Z,5392
2019-06-15T13:31:23.276Z,4976
2019-06-15T13:32:03.893Z,4588
2019-06-15T13:32:44.586Z,5532
2019-06-15T13:33:25.170Z,4740
2019-06-15T13:38:10.102Z,6068
2019-06-15T13:38:50.151Z,5356
2019-06-15T13:39:30.737Z,4580
2019-06-15T13:40:11.495Z,5572
2019-06-15T13:40:52.093Z,4056
2019-06-15T13:41:32.783Z,5440
2019-06-15T13:42:13.370Z,3792
2019-06-15T13:42:53.985Z,5148
2019-06-15T13:43:34.593Z,4980
2019-06-15T13:44:15.253Z,4960
2019-06-15T13:49:41.322Z,4860
2019-06-15T13:50:21.907Z,4788
2019-06-15T13:51:02.554Z,4720
2019-06-15T13:51:43.939Z,4708
2019-06-15T13:52:24.562Z,4700
2019-06-15T13:53:05.255Z,4716
2019-06-15T13:57:10.052Z,4808
2019-06-15T13:57:50.644Z,4772
2019-06-15T13:58:32.108Z,4744
2019-06-15T13:59:11.978Z,4696
2019-06-15T13:59:52.686Z,4668
2019-06-15T14:00:33.658Z,4616
2019-06-15T14:01:15.242Z,4584
2019-06-15T14:05:20.111Z,4636
2019-06-15T14:05:59.802Z,4648
2019-06-15T14:06:40.468Z,4556
2019-06-15T14:07:21.113Z,4680
2019-06-15T14:08:01.723Z,4628
2019-06-15T14:08:42.331Z,4224
2019-06-15T14:09:22.908Z,4800
2019-06-15T14:10:03.598Z,3264
2019-06-15T14:10:44.225Z,4768
2019-06-15T14:11:24.814Z,4736
2019-06-15T14:16:49.943Z,4764
2019-06-15T14:17:30.569Z,4752
2019-06-15T14:18:11.157Z,4736
2019-06-15T14:18:51.838Z,4724
2019-06-15T14:19:32.564Z,4736
2019-06-15T14:20:13.169Z,4752
2019-06-15T14:20:53.768Z,4764
2019-06-15T14:21:34.363Z,4656
2019-06-15T14:22:14.969Z,4744
2019-06-15T14:26:59.745Z,4816
2019-06-15T14:27:40.482Z,4784
2019-06-15T14:28:21.069Z,4808
2019-06-15T14:29:02.059Z,4800
2019-06-15T14:29:42.905Z,4768
2019-06-15T14:30:23.743Z,4804
2019-06-15T14:31:04.437Z,4796
2019-06-15T14:31:49.893Z,4808
2019-06-15T14:36:29.754Z,4856
2019-06-15T14:37:10.391Z,4820
2019-06-15T14:37:51.112Z,4832
2019-06-15T14:38:31.718Z,4828
2019-06-15T14:39:12.335Z,4772
2019-06-15T14:39:53.630Z,4740
2019-06-15T14:40:33.569Z,4800
2019-06-15T14:41:14.354Z,4760
2019-06-15T14:41:55.017Z,4792
2019-06-15T14:47:19.951Z,4796
2019-06-15T14:48:00.526Z,4816
2019-06-15T14:48:41.127Z,4812
2019-06-15T14:49:21.758Z,4812
2019-06-15T14:50:02.342Z,4776
2019-06-15T14:50:42.959Z,4796
2019-06-15T14:51:23.522Z,4820
2019-06-15T14:52:04.149Z,4848
2019-06-15T14:57:30.055Z,5112
2019-06-15T14:58:10.675Z,5144
2019-06-15T14:58:51.385Z,5180
2019-06-15T14:59:31.999Z,5064
2019-06-15T15:00:12.608Z,5112
2019-06-15T15:00:53.193Z,5076
2019-06-15T15:01:34.990Z,5056
2019-06-15T15:02:17.140Z,5016
2019-06-15T15:02:55.935Z,4976
2019-06-15T15:06:59.945Z,4944
2019-06-15T15:07:40.516Z,4948
2019-06-15T15:08:21.086Z,4944
2019-06-15T15:09:01.724Z,4832
2019-06-15T15:09:42.325Z,4836
2019-06-15T15:10:22.930Z,4848
2019-06-15T15:11:03.535Z,4844
2019-06-15T15:11:46.102Z,4732
2019-06-15T15:12:26.535Z,4648
2019-06-15T15:18:30.270Z,2936
2019-06-15T15:19:10.836Z,4860
2019-06-15T15:19:51.431Z,4896
2019-06-15T15:20:32.275Z,4952
2019-06-15T15:21:12.842Z,4976
2019-06-15T15:21:53.419Z,5012
2019-06-15T15:22:34.005Z,5064
2019-06-15T15:23:14.597Z,5040
2019-06-15T15:23:57.025Z,5068
2019-06-15T15:29:20.322Z,4812
2019-06-15T15:30:01.002Z,4796
2019-06-15T15:30:41.610Z,4816
2019-06-15T15:31:22.209Z,4800
2019-06-15T15:32:02.847Z,4800
2019-06-15T15:32:43.483Z,4796
2019-06-15T15:33:24.087Z,4736
2019-06-15T15:34:07.511Z,4712
2019-06-15T15:39:30.169Z,4612
2019-06-15T15:40:10.969Z,4584
2019-06-15T15:40:51.920Z,4568
2019-06-15T15:41:32.562Z,4528
2019-06-15T15:42:13.284Z,4584
2019-06-15T15:42:56.102Z,4628
2019-06-15T15:43:36.762Z,4628
2019-06-15T15:44:16.192Z,4632
2019-06-15T15:48:59.763Z,4624
2019-06-15T15:49:40.413Z,4664
2019-06-15T15:50:21.143Z,4656
2019-06-15T15:51:01.779Z,4608
2019-06-15T15:51:42.462Z,4580
2019-06-15T15:52:23.221Z,4544
2019-06-15T15:53:03.923Z,4532
2019-06-15T15:53:46.639Z,4520
2019-06-15T15:59:09.933Z,4156
2019-06-15T15:59:50.568Z,4216
2019-06-15T16:00:31.224Z,4204
2019-06-15T16:01:11.874Z,4204
2019-06-15T16:01:52.567Z,4180
2019-06-15T16:02:45.332Z,4184
2019-06-15T16:03:15.979Z,4244
2019-06-15T16:03:56.218Z,4272
2019-06-15T16:09:20.014Z,3944
2019-06-15T16:10:00.733Z,3984
2019-06-15T16:10:41.479Z,4024
2019-06-15T16:11:22.085Z,4008
2019-06-15T16:12:02.713Z,4032
2019-06-15T16:12:43.451Z,4072
2019-06-15T16:13:26.731Z,4084
2019-06-15T16:14:06.968Z,4112
2019-06-15T16:18:49.746Z,3976
2019-06-15T16:19:30.363Z,3964
2019-06-15T16:20:11.075Z,3892
2019-06-15T16:20:51.945Z,3872
2019-06-15T16:21:32.690Z,3940
2019-06-15T16:22:13.376Z,3968
2019-06-15T16:22:56.209Z,3996
2019-06-15T16:23:34.626Z,4020
2019-06-15T16:24:16.621Z,4032